Time;durP1;ratioP1;P1;durP2;ratioP2;P2;SDS_P1;SDS_P2;PMS_P1;PMS_P2;Temp;Humidity;BMP_temperature;BMP_pressure;BME280_temperature;BME280_humidity;BME280_pressure;Samples;Min_cycle;Max_cycle;Signal;HPM_P1;HPM_P2
2024/03/17 00:00:25;;;;;;;6.88;4.15;;;;;;;11.27;84.56;98905.41;4957246;28;20152;-69
2024/03/17 00:02:51;;;;;;;7.55;3.88;;;;;;;11.23;84.37;98906.66;4963916;28;20030;-72
2024/03/17 00:05:19;;;;;;;8.00;4.50;;;;;;;11.27;84.12;98905.41;4953870;28;20046;-70
2024/03/17 00:07:44;;;;;;;7.70;4.40;;;;;;;11.32;85.03;98895.38;4972318;28;20046;-70
2024/03/17 00:10:12;;;;;;;6.25;3.97;;;;;;;11.22;83.95;98878.97;4960496;28;20052;-70
2024/03/17 00:12:38;;;;;;;7.90;4.30;;;;;;;11.23;83.40;98896.25;4972100;28;20400;-70
2024/03/17 00:15:07;;;;;;;10.07;5.18;;;;;;;11.01;83.61;98892.19;4971903;28;20037;-67
2024/03/17 00:17:33;;;;;;;11.65;4.72;;;;;;;10.75;84.48;98866.78;4977805;28;20160;-71
2024/03/17 00:20:03;;;;;;;7.53;4.15;;;;;;;10.83;85.44;98849.66;4983869;28;20038;-69
2024/03/17 00:22:35;;;;;;;11.20;5.97;;;;;;;10.96;85.80;98884.78;4978471;28;20041;-72
2024/03/17 00:25:00;;;;;;;14.05;6.70;;;;;;;10.78;85.69;98857.88;4974161;28;20045;-72
2024/03/17 00:27:25;;;;;;;9.88;5.57;;;;;;;10.94;87.45;98897.13;4980252;28;20042;-69
2024/03/17 00:29:53;;;;;;;8.27;4.13;;;;;;;10.84;86.68;98888.53;4991860;28;20036;-68
2024/03/17 00:32:18;;;;;;;8.80;4.53;;;;;;;10.67;86.13;98865.81;4981130;28;20589;-72
2024/03/17 00:34:46;;;;;;;9.40;4.15;;;;;;;10.90;86.60;98897.56;4985349;28;20046;-71
2024/03/17 00:37:14;;;;;;;9.45;4.38;;;;;;;10.74;86.82;98898.94;4993394;28;20090;-72
2024/03/17 00:39:40;;;;;;;7.88;4.10;;;;;;;10.72;87.33;98898.25;4952367;28;20042;-69
2024/03/17 00:42:06;;;;;;;6.88;3.97;;;;;;;10.38;88.29;98846.69;4970944;28;20135;-70
2024/03/17 00:44:35;;;;;;;8.40;4.43;;;;;;;10.44;88.09;98847.09;4984738;28;20038;-69
2024/03/17 00:47:00;;;;;;;7.25;3.88;;;;;;;10.75;88.85;98899.75;4977263;28;20038;-69
2024/03/17 00:49:28;;;;;;;7.60;4.20;;;;;;;10.71;89.21;98895.78;4999366;28;20044;-70
2024/03/17 00:51:56;;;;;;;7.13;4.15;;;;;;;10.66;88.28;98892.78;4970688;28;20055;-69
2024/03/17 00:54:21;;;;;;;7.20;3.95;;;;;;;10.52;88.37;98894.84;4958761;28;20431;-69
2024/03/17 00:56:46;;;;;;;10.38;4.20;;;;;;;10.51;88.88;98876.78;4972222;28;20545;-70
2024/03/17 00:59:14;;;;;;;8.75;4.15;;;;;;;10.48;89.93;98883.09;4983935;28;20048;-70
2024/03/17 01:01:43;;;;;;;8.32;5.00;;;;;;;10.26;90.27;98883.31;4976538;28;20050;-69
2024/03/17 01:04:09;;;;;;;7.88;4.38;;;;;;;10.11;91.75;98895.88;4970728;28;20037;-70
2024/03/17 01:06:40;;;;;;;8.00;4.75;;;;;;;10.18;91.90;98892.63;4954975;28;20119;-73
2024/03/17 01:09:06;;;;;;;8.60;4.75;;;;;;;10.24;93.16;98880.88;4976087;28;20748;-69
2024/03/17 01:11:34;;;;;;;8.38;4.78;;;;;;;10.32;92.73;98895.81;4981815;28;20042;-73
2024/03/17 01:13:59;;;;;;;7.28;4.28;;;;;;;10.20;92.53;98895.06;4954090;28;20042;-69
2024/03/17 01:16:24;;;;;;;7.82;4.25;;;;;;;9.90;91.83;98852.66;4974156;28;20034;-72
2024/03/17 01:18:52;;;;;;;7.35;4.20;;;;;;;10.22;91.91;98897.53;4971157;28;20076;-68
2024/03/17 01:21:17;;;;;;;7.10;3.97;;;;;;;10.23;93.32;98905.19;4988443;28;20508;-70
2024/03/17 01:23:43;;;;;;;6.68;4.13;;;;;;;10.08;93.83;98877.97;4968150;28;20041;-69
2024/03/17 01:26:13;;;;;;;7.63;4.45;;;;;;;10.22;92.75;98903.53;4987620;28;20044;-70
2024/03/17 01:28:41;;;;;;;6.90;4.13;;;;;;;10.15;94.00;98908.47;4983955;28;20036;-69
2024/03/17 01:31:06;;;;;;;7.22;4.07;;;;;;;10.00;93.81;98904.59;4965505;28;21136;-67
2024/03/17 01:33:32;;;;;;;8.73;4.40;;;;;;;9.97;94.18;98904.91;4975137;28;20034;-67
2024/03/17 01:36:00;;;;;;;8.88;4.60;;;;;;;10.09;94.57;98898.59;4981162;28;20038;-68
2024/03/17 01:38:30;;;;;;;7.65;4.20;;;;;;;9.94;94.82;98858.41;4977448;28;20125;-70
2024/03/17 01:40:57;;;;;;;8.00;4.40;;;;;;;10.03;94.29;98893.97;4997684;28;20041;-69
2024/03/17 01:43:23;;;;;;;8.35;4.85;;;;;;;10.22;93.66;98907.94;4963366;28;20039;-69
2024/03/17 01:45:48;;;;;;;7.75;4.47;;;;;;;10.14;94.12;98901.63;4990698;28;20042;-68
2024/03/17 01:48:16;;;;;;;7.80;4.57;;;;;;;10.24;93.46;98896.47;4969722;28;20165;-70
2024/03/17 01:50:44;;;;;;;9.55;4.70;;;;;;;10.24;93.70;98893.03;4976711;28;20034;-68
2024/03/17 01:53:13;;;;;;;7.60;4.20;;;;;;;10.16;93.19;98893.69;4977760;28;20788;-68
2024/03/17 01:55:40;;;;;;;6.95;4.18;;;;;;;10.11;94.27;98885.50;4975587;28;20065;-68
2024/03/17 01:58:10;;;;;;;7.78;4.60;;;;;;;10.14;93.08;98880.84;4960961;28;20046;-68
2024/03/17 02:00:36;;;;;;;7.22;4.28;;;;;;;10.17;94.11;98882.38;4967486;28;20030;-69
2024/03/17 02:03:09;;;;;;;7.28;4.20;;;;;;;10.16;93.97;98889.31;4957340;28;20054;-69
2024/03/17 02:05:37;;;;;;;8.85;4.40;;;;;;;10.03;94.27;98873.19;4977742;28;20042;-69
2024/03/17 02:08:03;;;;;;;7.35;4.07;;;;;;;10.06;95.35;98885.06;4969320;28;20038;-68
2024/03/17 02:10:29;;;;;;;7.80;4.38;;;;;;;10.01;94.85;98890.69;4977785;28;20049;-70
2024/03/17 02:12:56;;;;;;;8.85;4.60;;;;;;;9.79;94.42;98834.59;4980756;28;20107;-70
2024/03/17 02:15:22;;;;;;;8.07;4.65;;;;;;;10.01;95.98;98886.28;4980774;28;20041;-69
2024/03/17 02:17:48;;;;;;;8.55;4.72;;;;;;;10.03;95.59;98880.16;4984857;28;20038;-70
2024/03/17 02:20:14;;;;;;;9.20;4.70;;;;;;;9.98;95.03;98884.00;4983898;28;20100;-70
2024/03/17 02:22:39;;;;;;;8.60;5.25;;;;;;;9.99;94.46;98890.00;4982819;28;20050;-72
2024/03/17 02:25:07;;;;;;;7.07;4.20;;;;;;;9.96;94.64;98879.88;4975138;28;20034;-70
2024/03/17 02:27:35;;;;;;;8.63;4.40;;;;;;;9.68;94.12;98845.09;4973706;28;20042;-68
2024/03/17 02:30:08;;;;;;;8.68;4.93;;;;;;;9.64;94.84;98844.53;4966171;28;20433;-67
2024/03/17 02:32:34;;;;;;;7.95;4.80;;;;;;;9.82;95.19;98892.28;4988524;28;20042;-68
2024/03/17 02:34:59;;;;;;;7.72;4.18;;;;;;;9.74;96.78;98880.91;4969326;28;20599;-68
2024/03/17 02:37:25;;;;;;;7.53;4.25;;;;;;;9.67;96.33;98883.22;4965581;28;20048;-71
2024/03/17 02:39:50;;;;;;;8.52;4.32;;;;;;;9.35;95.71;98836.66;4982212;28;20061;-69
2024/03/17 02:42:16;;;;;;;8.43;4.43;;;;;;;9.61;96.99;98887.16;4983832;28;20050;-68
2024/03/17 02:44:41;;;;;;;6.72;3.80;;;;;;;9.48;96.32;98870.19;4975342;28;20172;-68
2024/03/17 02:47:09;;;;;;;6.95;3.85;;;;;;;9.41;97.58;98875.06;4975530;28;20700;-70
2024/03/17 02:49:43;;;;;;;5.90;3.33;;;;;;;9.43;98.13;98880.94;4991241;28;20044;-70
2024/03/17 02:52:11;;;;;;;7.75;4.22;;;;;;;9.61;98.30;98886.34;4984857;28;20034;-68
2024/03/17 02:54:37;;;;;;;7.60;3.95;;;;;;;9.62;98.47;98888.00;4951882;28;20126;-71
2024/03/17 02:57:03;;;;;;;9.80;3.38;;;;;;;9.56;99.19;98891.91;4997121;28;20767;-69
2024/03/17 02:59:29;;;;;;;8.75;4.20;;;;;;;9.57;99.78;98890.97;4992710;28;20034;-69
2024/03/17 03:01:54;;;;;;;8.02;4.63;;;;;;;9.47;99.72;98884.91;4976786;28;20041;-71
2024/03/17 03:04:20;;;;;;;10.00;4.45;;;;;;;9.31;99.68;98888.00;4963878;28;20037;-71
2024/03/17 03:06:45;;;;;;;7.40;4.28;;;;;;;9.27;100.00;98880.59;4980146;28;20053;-69
2024/03/17 03:09:14;;;;;;;8.32;4.22;;;;;;;9.35;100.00;98880.78;4979923;28;20031;-69
2024/03/17 03:11:40;;;;;;;8.48;4.35;;;;;;;9.35;100.00;98875.59;4980265;28;20133;-69
2024/03/17 03:14:09;;;;;;;7.25;3.80;;;;;;;9.38;100.00;98873.56;4987701;28;20703;-69
2024/03/17 03:16:37;;;;;;;7.50;3.88;;;;;;;8.99;100.00;98836.25;4964994;28;20072;-70
2024/03/17 03:19:02;;;;;;;7.70;4.03;;;;;;;9.26;100.00;98873.78;4984862;28;20035;-71
2024/03/17 03:21:30;;;;;;;7.05;4.00;;;;;;;9.35;100.00;98868.63;4968163;28;20045;-70
2024/03/17 03:23:58;;;;;;;7.07;4.07;;;;;;;9.29;100.00;98838.03;4978982;28;20096;-68
2024/03/17 03:26:25;;;;;;;7.43;4.05;;;;;;;9.49;100.00;98870.06;4979704;28;20093;-68
2024/03/17 03:28:51;;;;;;;8.32;4.03;;;;;;;9.51;100.00;98877.69;4955736;28;20042;-68
2024/03/17 03:31:19;;;;;;;6.72;3.63;;;;;;;9.38;100.00;98878.75;4971871;28;20040;-70
2024/03/17 03:33:47;;;;;;;7.55;3.50;;;;;;;8.93;100.00;98858.31;4968840;28;20060;-70
2024/03/17 03:36:14;;;;;;;10.13;3.05;;;;;;;8.99;100.00;98880.31;4977305;28;20044;-69
2024/03/17 03:38:39;;;;;;;6.80;2.65;;;;;;;9.23;100.00;98885.22;4977128;28;20196;-68
2024/03/17 03:41:08;;;;;;;6.07;2.67;;;;;;;9.21;100.00;98882.75;4963998;28;20056;-70
2024/03/17 03:43:36;;;;;;;5.78;2.80;;;;;;;9.28;100.00;98874.47;4962759;28;20107;-69
2024/03/17 03:46:05;;;;;;;5.22;2.40;;;;;;;9.35;100.00;98878.19;4993548;28;20172;-70
2024/03/17 03:48:34;;;;;;;7.10;2.65;;;;;;;9.36;100.00;98878.06;4992442;28;20504;-69
2024/03/17 03:51:03;;;;;;;5.60;2.45;;;;;;;9.41;100.00;98873.28;4968267;28;20037;-71
2024/03/17 03:53:29;;;;;;;5.60;2.33;;;;;;;9.46;100.00;98880.69;4984121;28;20044;-68
2024/03/17 03:55:59;;;;;;;5.35;2.40;;;;;;;9.46;100.00;98883.28;4964836;28;20289;-69
2024/03/17 03:58:24;;;;;;;5.53;2.50;;;;;;;9.20;100.00;98831.84;4964604;28;20037;-70
2024/03/17 04:00:50;;;;;;;5.93;2.38;;;;;;;9.55;100.00;98885.09;4974869;28;20037;-68
2024/03/17 04:03:15;;;;;;;5.28;2.30;;;;;;;9.56;100.00;98880.72;4962770;28;20381;-69
2024/03/17 04:05:43;;;;;;;5.70;2.40;;;;;;;9.52;100.00;98893.13;4976475;28;20045;-71
2024/03/17 04:08:08;;;;;;;5.10;2.72;;;;;;;9.52;100.00;98887.13;4991199;28;20152;-68
2024/03/17 04:10:36;;;;;;;5.97;2.40;;;;;;;9.40;100.00;98889.81;4972542;28;20774;-71
2024/03/17 04:13:04;;;;;;;5.63;2.40;;;;;;;9.23;100.00;98893.81;4964839;28;20045;-70
2024/03/17 04:15:30;;;;;;;4.50;2.05;;;;;;;9.17;100.00;98904.72;4970665;28;20050;-71
2024/03/17 04:17:55;;;;;;;5.13;2.00;;;;;;;9.18;100.00;98906.38;4951747;28;20031;-70
2024/03/17 04:20:20;;;;;;;4.50;1.80;;;;;;;9.16;100.00;98905.69;4960316;28;20077;-69
2024/03/17 04:22:48;;;;;;;5.32;1.73;;;;;;;9.19;100.00;98904.59;4973844;28;20031;-69
2024/03/17 04:25:14;;;;;;;5.68;2.00;;;;;;;9.08;100.00;98889.94;4965774;28;20074;-71
2024/03/17 04:27:39;;;;;;;6.25;1.73;;;;;;;9.09;100.00;98880.38;4975633;28;20046;-69
2024/03/17 04:30:08;;;;;;;4.50;1.80;;;;;;;9.33;100.00;98908.66;4978163;28;20123;-70
2024/03/17 04:32:36;;;;;;;5.85;1.80;;;;;;;9.22;100.00;98902.56;4966308;28;20037;-71
2024/03/17 04:35:07;;;;;;;4.63;1.80;;;;;;;9.20;100.00;98901.06;4979578;28;20220;-70
2024/03/17 04:37:39;;;;;;;4.50;1.98;;;;;;;9.17;100.00;98909.09;4950782;28;20064;-69
2024/03/17 04:40:09;;;;;;;4.10;1.67;;;;;;;9.08;100.00;98904.69;5001891;28;20559;-68
2024/03/17 04:42:38;;;;;;;4.20;1.70;;;;;;;9.10;100.00;98913.16;4962025;28;20689;-69
2024/03/17 04:45:05;;;;;;;5.10;1.80;;;;;;;9.08;100.00;98910.69;4975684;28;20104;-70
2024/03/17 04:47:31;;;;;;;5.57;2.10;;;;;;;8.92;100.00;98874.81;4967347;28;20053;-69
2024/03/17 04:49:56;;;;;;;4.00;1.70;;;;;;;9.10;100.00;98910.56;4953659;28;20144;-69
2024/03/17 04:52:21;;;;;;;4.82;1.77;;;;;;;8.85;100.00;98868.50;4971269;28;20042;-68
2024/03/17 04:54:52;;;;;;;5.25;1.48;;;;;;;9.10;100.00;98892.41;4973677;28;20572;-68
2024/03/17 04:57:19;;;;;;;5.40;1.70;;;;;;;9.18;100.00;98910.72;4989650;28;20128;-67
2024/03/17 04:59:45;;;;;;;4.60;1.65;;;;;;;9.15;100.00;98908.41;4976376;28;20042;-69
2024/03/17 05:02:10;;;;;;;4.45;1.80;;;;;;;9.14;100.00;98912.75;4964541;28;20049;-69
2024/03/17 05:04:36;;;;;;;5.10;1.63;;;;;;;9.11;100.00;98913.03;4986485;28;20030;-71
2024/03/17 05:07:01;;;;;;;5.07;1.67;;;;;;;9.12;100.00;98903.47;4972374;28;20057;-69
2024/03/17 05:09:29;;;;;;;4.95;1.63;;;;;;;9.10;100.00;98908.78;4979205;28;20041;-68
2024/03/17 05:11:55;;;;;;;4.75;1.88;;;;;;;9.04;100.00;98915.31;4980420;28;20045;-71
2024/03/17 05:14:22;;;;;;;4.50;1.77;;;;;;;9.10;100.00;98913.97;4979776;28;20045;-69
2024/03/17 05:16:52;;;;;;;5.15;2.00;;;;;;;9.04;100.00;98914.50;4975947;28;20136;-68
2024/03/17 05:19:17;;;;;;;5.38;1.90;;;;;;;8.98;100.00;98920.16;4969590;28;20042;-68
2024/03/17 05:21:46;;;;;;;4.07;1.42;;;;;;;9.02;100.00;98919.00;4973264;28;20402;-69
2024/03/17 05:24:15;;;;;;;4.93;1.50;;;;;;;9.05;100.00;98926.50;4965845;28;20405;-70
2024/03/17 05:26:42;;;;;;;4.15;1.60;;;;;;;8.99;100.00;98929.59;4983038;28;20688;-70
2024/03/17 05:29:07;;;;;;;3.33;1.38;;;;;;;9.01;100.00;98925.13;4965221;28;20488;-69
2024/03/17 05:31:35;;;;;;;4.35;1.40;;;;;;;9.03;100.00;98925.81;4968698;28;20511;-69
2024/03/17 05:34:06;;;;;;;3.80;1.48;;;;;;;9.07;100.00;98928.97;4961321;28;20670;-70
2024/03/17 05:36:33;;;;;;;3.72;1.42;;;;;;;9.01;100.00;98927.72;4977013;28;20723;-67
2024/03/17 05:38:59;;;;;;;5.65;1.50;;;;;;;9.02;100.00;98937.16;4975848;28;20038;-68
2024/03/17 05:41:28;;;;;;;3.88;1.48;;;;;;;9.03;100.00;98942.22;4994320;28;20128;-70
2024/03/17 05:43:53;;;;;;;4.50;1.60;;;;;;;9.02;100.00;98932.78;4971441;28;20045;-68
2024/03/17 05:46:21;;;;;;;5.63;1.58;;;;;;;9.04;100.00;98933.47;4968962;28;20057;-68
2024/03/17 05:48:46;;;;;;;4.45;1.60;;;;;;;9.09;100.00;98947.81;4978244;28;20145;-68
2024/03/17 05:51:12;;;;;;;4.85;1.65;;;;;;;8.88;100.00;98953.00;4971144;28;20655;-70
2024/03/17 05:53:40;;;;;;;4.03;1.50;;;;;;;8.88;100.00;98961.59;4963798;28;20233;-71
2024/03/17 05:56:07;;;;;;;4.38;1.88;;;;;;;8.92;100.00;98955.22;4972126;28;21235;-70
2024/03/17 05:58:37;;;;;;;5.43;1.60;;;;;;;8.86;100.00;98955.72;4964608;28;20028;-69
2024/03/17 06:01:08;;;;;;;4.20;1.60;;;;;;;8.90;100.00;98951.94;4969363;28;20125;-69
2024/03/17 06:03:35;;;;;;;4.22;1.60;;;;;;;9.02;100.00;98957.91;4967084;28;20085;-69
2024/03/17 06:06:07;;;;;;;5.00;1.70;;;;;;;9.02;100.00;98955.31;4954307;28;20049;-69
2024/03/17 06:08:32;;;;;;;4.28;1.60;;;;;;;9.11;100.00;98951.94;4989253;28;20065;-69
2024/03/17 06:11:00;;;;;;;5.35;1.83;;;;;;;8.92;100.00;98912.91;4969138;28;20154;-68
2024/03/17 06:13:28;;;;;;;4.63;1.60;;;;;;;9.16;100.00;98956.75;4984743;28;21028;-68
2024/03/17 06:15:53;;;;;;;3.80;1.40;;;;;;;8.88;100.00;98930.50;4969852;28;20097;-71
2024/03/17 06:18:20;;;;;;;5.13;1.52;;;;;;;9.12;100.00;98955.34;4984176;28;20954;-69
2024/03/17 06:20:46;;;;;;;4.38;1.70;;;;;;;9.12;100.00;98957.94;4983680;28;20038;-68
2024/03/17 06:23:15;;;;;;;5.07;1.80;;;;;;;9.10;100.00;98968.44;4955340;28;20034;-69
2024/03/17 06:25:44;;;;;;;5.38;1.80;;;;;;;9.24;100.00;98972.50;4979562;28;20042;-70
2024/03/17 06:28:14;;;;;;;5.68;1.70;;;;;;;9.23;100.00;98974.25;4986197;28;20790;-70
2024/03/17 06:30:48;;;;;;;4.20;1.70;;;;;;;9.22;100.00;98982.19;4974460;28;20052;-69
2024/03/17 06:33:19;;;;;;;5.65;1.70;;;;;;;9.28;100.00;98989.47;4952993;28;20629;-68
2024/03/17 06:35:44;;;;;;;5.20;2.00;;;;;;;9.00;100.00;98947.66;4971245;28;20073;-67
2024/03/17 06:38:10;;;;;;;4.90;2.28;;;;;;;9.18;100.00;98989.41;4993822;28;20826;-72
2024/03/17 06:40:37;;;;;;;6.32;2.50;;;;;;;8.85;100.00;98939.34;4977762;28;20565;-70
2024/03/17 06:43:04;;;;;;;5.68;2.40;;;;;;;9.16;100.00;98993.06;4955679;28;20054;-69
2024/03/17 06:45:29;;;;;;;8.18;2.65;;;;;;;9.16;100.00;98982.69;4979437;28;20057;-68
2024/03/17 06:48:02;;;;;;;5.43;2.45;;;;;;;9.16;100.00;98990.47;4991446;28;20200;-71
2024/03/17 06:50:27;;;;;;;6.03;2.65;;;;;;;9.21;100.00;98986.53;4962406;28;20026;-68
2024/03/17 06:52:53;;;;;;;6.28;2.70;;;;;;;9.26;100.00;98996.56;4976755;28;20114;-71
2024/03/17 06:55:21;;;;;;;7.93;2.70;;;;;;;9.27;100.00;98992.19;4980947;28;20127;-68
2024/03/17 06:57:46;;;;;;;6.05;2.65;;;;;;;9.12;100.00;98960.53;4975895;28;20042;-68
2024/03/17 07:00:14;;;;;;;6.57;2.60;;;;;;;9.41;100.00;98991.84;4966708;28;20749;-70
2024/03/17 07:02:43;;;;;;;5.57;2.17;;;;;;;9.39;100.00;98988.56;4976834;28;20041;-70
2024/03/17 07:05:14;;;;;;;5.63;2.17;;;;;;;9.35;100.00;98982.81;4965440;28;20037;-70
2024/03/17 07:07:43;;;;;;;5.03;1.90;;;;;;;9.30;100.00;98992.75;4955728;28;20041;-68
2024/03/17 07:10:11;;;;;;;4.00;1.53;;;;;;;9.40;100.00;98995.38;4986530;28;20049;-69
2024/03/17 07:12:39;;;;;;;4.15;1.60;;;;;;;9.22;100.00;98954.47;4963867;28;20261;-69
2024/03/17 07:15:05;;;;;;;3.70;1.40;;;;;;;9.40;100.00;98987.59;4971169;28;20688;-71
2024/03/17 07:17:31;;;;;;;3.78;1.38;;;;;;;9.47;100.00;98995.72;4978132;28;20117;-69
2024/03/17 07:19:56;;;;;;;4.72;1.42;;;;;;;9.47;100.00;98982.72;4960691;28;20042;-69
2024/03/17 07:22:28;;;;;;;3.65;1.30;;;;;;;9.39;100.00;98958.25;4981176;28;20373;-69
2024/03/17 07:25:00;;;;;;;4.85;1.30;;;;;;;9.33;99.91;98940.59;4978069;28;20033;-69
2024/03/17 07:27:26;;;;;;;3.60;1.40;;;;;;;9.55;100.00;98985.53;4972410;28;20088;-68
2024/03/17 07:29:52;;;;;;;3.70;1.20;;;;;;;9.49;100.00;98973.88;4974984;28;20192;-69
2024/03/17 07:32:17;;;;;;;4.80;1.20;;;;;;;9.56;100.00;98985.38;4978359;28;20132;-69
2024/03/17 07:34:45;;;;;;;5.47;1.40;;;;;;;9.53;97.56;98985.66;4971057;28;20053;-70
2024/03/17 07:37:10;;;;;;;4.28;1.25;;;;;;;9.68;97.41;98986.13;4963401;28;20073;-68
2024/03/17 07:39:36;;;;;;;3.95;1.20;;;;;;;9.61;96.71;98951.25;4979343;28;20048;-69
2024/03/17 07:42:04;;;;;;;3.97;1.40;;;;;;;9.84;93.07;98977.03;4978251;28;20540;-67
2024/03/17 07:44:33;;;;;;;6.80;1.45;;;;;;;9.93;92.44;98982.28;4970296;28;20079;-68
2024/03/17 07:47:05;;;;;;;4.25;1.42;;;;;;;10.01;94.08;98968.63;4976312;28;20045;-69
2024/03/17 07:49:33;;;;;;;3.65;1.10;;;;;;;10.03;95.98;98982.28;4961025;28;20136;-68
2024/03/17 07:52:02;;;;;;;3.35;1.20;;;;;;;9.97;96.81;98983.66;4974754;28;20333;-70
2024/03/17 07:54:27;;;;;;;3.60;1.08;;;;;;;9.85;98.68;98986.47;4993106;28;20042;-71
2024/03/17 07:56:55;;;;;;;4.35;1.30;;;;;;;9.85;100.00;98978.69;4996448;28;20046;-69
2024/03/17 07:59:21;;;;;;;3.97;1.20;;;;;;;9.90;100.00;98989.50;4957577;28;20050;-72
2024/03/17 08:01:46;;;;;;;3.78;1.20;;;;;;;9.85;100.00;98981.28;4968485;28;20069;-70
2024/03/17 08:04:14;;;;;;;3.47;1.20;;;;;;;9.90;100.00;98986.91;4970923;28;20058;-70
2024/03/17 08:06:45;;;;;;;4.20;1.40;;;;;;;10.04;98.95;98985.69;4964989;28;20152;-70
2024/03/17 08:09:12;;;;;;;3.50;1.20;;;;;;;10.22;99.66;98993.69;4957329;28;20067;-69
2024/03/17 08:11:46;;;;;;;3.35;1.15;;;;;;;9.93;99.74;98948.50;4998891;28;20044;-70
2024/03/17 08:14:15;;;;;;;3.75;1.30;;;;;;;10.22;99.34;98997.09;4960522;28;20400;-69
2024/03/17 08:16:41;;;;;;;4.85;1.63;;;;;;;10.31;99.75;98995.53;4971479;28;20034;-71
2024/03/17 08:19:08;;;;;;;3.70;1.42;;;;;;;10.45;96.19;99000.34;4985391;28;20077;-68
2024/03/17 08:21:36;;;;;;;4.18;1.40;;;;;;;10.50;94.56;98994.75;4969191;28;20481;-71
2024/03/17 08:24:02;;;;;;;3.85;1.30;;;;;;;10.47;88.05;98974.22;4962041;28;20049;-70
2024/03/17 08:26:28;;;;;;;3.28;1.20;;;;;;;10.62;88.48;98992.84;4958287;28;20040;-70
2024/03/17 08:28:53;;;;;;;3.72;1.20;;;;;;;10.75;86.93;98989.03;4979712;28;20046;-69
2024/03/17 08:31:19;;;;;;;3.03;0.98;;;;;;;10.64;85.70;98957.09;4976076;28;20033;-72
2024/03/17 08:33:44;;;;;;;4.82;1.30;;;;;;;10.91;84.48;98992.84;4974521;28;20328;-73
2024/03/17 08:36:10;;;;;;;4.35;1.30;;;;;;;10.96;82.32;98986.25;4986701;28;20038;-72
2024/03/17 08:38:38;;;;;;;3.20;1.20;;;;;;;11.14;83.74;98988.19;4974114;28;20070;-72
2024/03/17 08:41:06;;;;;;;3.80;1.20;;;;;;;10.96;82.57;98941.22;4982599;28;20117;-70
2024/03/17 08:43:36;;;;;;;3.85;1.25;;;;;;;11.24;81.02;98965.53;4969818;28;20046;-70
2024/03/17 08:46:04;;;;;;;3.60;1.10;;;;;;;11.51;81.37;98987.41;4976299;28;20185;-70
2024/03/17 08:48:34;;;;;;;4.28;1.50;;;;;;;11.31;76.46;98955.41;4963577;28;20034;-68
2024/03/17 08:51:01;;;;;;;4.10;1.30;;;;;;;11.60;73.36;98985.75;4962185;28;20037;-74
2024/03/17 08:53:30;;;;;;;6.38;2.58;;;;;;;11.70;67.83;98987.38;4976488;28;20100;-70
2024/03/17 08:56:01;;;;;;;6.60;2.05;;;;;;;11.73;67.63;98996.66;4965367;28;20053;-71
2024/03/17 08:58:27;;;;;;;5.20;1.55;;;;;;;11.67;69.53;98981.63;4959445;28;20101;-71
2024/03/17 09:00:52;;;;;;;5.25;1.60;;;;;;;11.41;71.40;98942.34;4981972;28;20106;-72
2024/03/17 09:03:18;;;;;;;3.70;1.02;;;;;;;11.68;71.14;98981.47;4963747;28;20045;-71
2024/03/17 09:05:50;;;;;;;3.88;1.38;;;;;;;11.79;70.51;98982.25;4990290;28;20105;-69
2024/03/17 09:08:16;;;;;;;4.28;1.33;;;;;;;11.64;70.55;98955.84;4965561;28;20130;-68
2024/03/17 09:10:43;;;;;;;3.72;1.30;;;;;;;11.69;72.08;98964.06;4970160;28;20133;-69
2024/03/17 09:13:21;;;;;;;6.25;1.27;;;;;;;11.83;71.74;98987.03;4977377;28;20033;-70
2024/03/17 09:16:02;;;;;;;5.57;1.90;;;;;;;11.80;70.68;98984.72;4974823;28;20907;-72
2024/03/17 09:18:33;;;;;;;5.95;2.20;;;;;;;11.56;68.92;98961.78;4992806;28;20042;-69
2024/03/17 09:21:10;;;;;;;4.22;1.30;;;;;;;11.88;68.06;98991.81;4976997;28;20034;-69
2024/03/17 09:23:38;;;;;;;4.05;1.10;;;;;;;11.90;64.47;98998.56;4981743;28;20085;-68
2024/03/17 09:26:08;;;;;;;3.67;1.08;;;;;;;11.89;66.96;98990.84;4974883;28;20049;-70
2024/03/17 09:28:36;;;;;;;2.92;0.90;;;;;;;11.81;65.77;98985.53;4971200;28;20042;-71
2024/03/17 09:31:07;;;;;;;3.03;1.10;;;;;;;11.89;66.45;98983.03;4949548;28;20043;-71
2024/03/17 09:33:33;;;;;;;4.10;0.90;;;;;;;11.45;65.78;98920.28;4959617;28;20030;-70
2024/03/17 09:36:03;;;;;;;2.97;0.77;;;;;;;11.85;63.13;98984.28;4973850;28;20042;-73
2024/03/17 09:38:31;;;;;;;3.33;0.85;;;;;;;11.84;63.73;98993.06;4971052;28;20038;-71
2024/03/17 09:41:00;;;;;;;4.50;1.20;;;;;;;11.71;61.61;98985.56;4985520;28;20476;-69
2024/03/17 09:43:27;;;;;;;2.65;0.90;;;;;;;11.75;61.67;98989.53;4968630;28;20149;-71
2024/03/17 09:45:57;;;;;;;2.85;0.80;;;;;;;11.84;62.37;98993.06;4998519;28;20066;-70
2024/03/17 09:48:22;;;;;;;;;;;;;;;11.97;61.33;98992.75;4975463;28;20034;-68
2024/03/17 09:50:52;;;;;;;2.45;0.80;;;;;;;12.02;60.96;98991.38;4981171;28;19924;-71
2024/03/17 09:53:23;;;;;;;2.53;0.75;;;;;;;12.03;60.59;98990.41;4978605;28;20069;-74
2024/03/17 09:55:48;;;;;;;3.35;0.90;;;;;;;11.72;61.12;98935.13;4976189;28;20045;-69
2024/03/17 09:58:17;;;;;;;2.17;0.73;;;;;;;12.06;58.82;98977.06;4961956;28;20128;-71
2024/03/17 10:00:42;;;;;;;2.78;0.70;;;;;;;12.19;60.13;98976.72;4974313;28;20091;-70
2024/03/17 10:03:08;;;;;;;2.80;0.90;;;;;;;12.27;60.29;98978.63;4980897;28;20042;-71
2024/03/17 10:05:35;;;;;;;2.05;0.77;;;;;;;12.35;60.25;98968.28;4961278;28;20133;-70
2024/03/17 10:08:02;;;;;;;3.15;0.88;;;;;;;12.58;59.63;98968.66;4999902;28;20049;-68
2024/03/17 10:10:27;;;;;;;4.75;0.88;;;;;;;12.46;59.10;98934.16;4958822;28;20034;-69
2024/03/17 10:12:53;;;;;;;3.38;1.00;;;;;;;12.77;60.12;98965.06;4980116;28;20836;-71
2024/03/17 10:15:23;;;;;;;3.60;1.00;;;;;;;12.71;58.83;98944.81;4974806;28;20453;-72
2024/03/17 10:17:49;;;;;;;3.25;0.90;;;;;;;12.93;59.58;98960.97;4994689;28;20526;-73
2024/03/17 10:20:25;;;;;;;3.40;0.95;;;;;;;12.98;59.06;98953.53;4964911;28;20061;-71
2024/03/17 10:23:03;;;;;;;4.35;1.40;;;;;;;13.08;59.44;98946.41;4978575;28;20042;-70
2024/03/17 10:25:33;;;;;;;3.83;1.48;;;;;;;13.21;58.84;98938.97;4980127;28;20038;-73
2024/03/17 10:27:59;;;;;;;3.58;1.00;;;;;;;13.27;60.93;98943.59;4974636;28;20070;-72
2024/03/17 10:30:26;;;;;;;3.53;1.10;;;;;;;13.40;60.81;98945.00;4989464;28;20092;-73
2024/03/17 10:32:58;;;;;;;4.03;1.23;;;;;;;13.51;60.02;98942.13;4971281;28;20814;-71
2024/03/17 10:35:34;;;;;;;4.78;1.30;;;;;;;13.62;57.74;98941.03;4980022;28;20038;-69
2024/03/17 10:38:00;;;;;;;3.63;1.52;;;;;;;13.53;57.45;98906.22;4981208;28;20034;-69
2024/03/17 10:40:26;;;;;;;4.38;1.67;;;;;;;13.84;58.05;98931.81;4977264;28;20033;-70
2024/03/17 10:42:54;;;;;;;4.70;1.65;;;;;;;13.90;57.60;98930.38;4978274;28;21576;-70
2024/03/17 10:45:21;;;;;;;4.72;1.30;;;;;;;14.04;58.87;98917.50;4962446;28;20041;-69
2024/03/17 10:47:51;;;;;;;3.25;1.10;;;;;;;14.20;57.12;98923.75;4977545;28;20049;-69
2024/03/17 10:50:17;;;;;;;;;;;;;;;14.34;57.10;98925.72;4970081;28;20120;-69
2024/03/17 10:52:46;;;;;;;4.15;1.20;;;;;;;14.48;56.72;98921.69;4986324;28;20035;-70
2024/03/17 10:55:22;;;;;;;3.50;1.38;;;;;;;14.58;55.06;98922.38;4951131;28;20975;-70
2024/03/17 10:57:49;;;;;;;4.63;1.48;;;;;;;14.72;55.15;98939.22;4972764;28;20049;-71
2024/03/17 11:00:21;;;;;;;3.97;1.23;;;;;;;14.63;55.11;98900.94;4973977;28;20053;-72
2024/03/17 11:02:48;;;;;;;4.25;1.40;;;;;;;14.77;54.34;98915.19;4955078;28;20516;-71
2024/03/17 11:05:33;;;;;;;4.43;1.60;;;;;;;14.96;54.30;98935.78;4967846;28;20587;-70
2024/03/17 11:08:01;;;;;;;4.40;1.52;;;;;;;15.04;54.44;98932.34;4981023;28;20634;-70
2024/03/17 11:10:31;;;;;;;5.05;1.50;;;;;;;14.96;54.41;98909.59;4966322;28;20910;-70
2024/03/17 11:12:58;;;;;;;4.13;1.50;;;;;;;15.14;52.54;98926.94;4984243;28;20058;-70
2024/03/17 11:15:24;;;;;;;4.50;1.60;;;;;;;15.04;53.23;98892.22;4981444;28;20056;-71
2024/03/17 11:17:54;;;;;;;4.25;1.63;;;;;;;15.35;53.23;98927.22;4983539;28;20618;-71
2024/03/17 11:20:28;;;;;;;3.88;1.45;;;;;;;15.04;52.98;98902.72;4953591;28;20041;-71
2024/03/17 11:22:58;;;;;;;3.53;1.17;;;;;;;14.98;55.85;98928.56;4955823;28;20041;-70
2024/03/17 11:25:26;;;;;;;3.25;1.10;;;;;;;14.71;56.37;98880.03;4964197;28;20043;-70
2024/03/17 11:28:00;;;;;;;4.38;1.30;;;;;;;14.93;53.59;98903.88;4981475;28;20038;-73
2024/03/17 11:30:44;;;;;;;3.38;1.00;;;;;;;15.15;56.36;98924.16;4955804;28;20040;-71
2024/03/17 11:33:37;;;;;;;3.95;1.00;;;;;;;15.35;54.06;98921.97;4978381;28;20038;-70
2024/03/17 11:36:27;;;;;;;3.58;1.02;;;;;;;15.44;51.40;98920.16;4971316;28;20065;-70